Time;durP1;ratioP1;P1;durP2;ratioP2;P2;SDS_P1;SDS_P2;PMS_P1;PMS_P2;Temp;Humidity;BMP_temperature;BMP_pressure;BME280_temperature;BME280_humidity;BME280_pressure;Samples;Min_cycle;Max_cycle;Signal;HPM_P1;HPM_P2
2024/03/17 00:01:58;;;;;;;;;;;20.50;54.60;;;;;;1565824;75;660;-79
2024/03/17 00:04:00;;;;;;;;;;;20.60;54.70;;;;;;1563119;75;1142;-82
2024/03/17 00:06:01;;;;;;;;;;;20.60;54.70;;;;;;1556135;75;703;-83
2024/03/17 00:08:08;;;;;;;;;;;20.60;54.70;;;;;;1560525;75;1331;-81
2024/03/17 00:10:08;;;;;;;;;;;20.50;54.60;;;;;;1563598;75;1289;-79
2024/03/17 00:12:10;;;;;;;;;;;20.50;54.60;;;;;;1554232;75;735;-77
2024/03/17 00:14:12;;;;;;;;;;;20.60;54.60;;;;;;1559366;75;1147;-77
2024/03/17 00:16:18;;;;;;;;;;;20.50;54.70;;;;;;1561488;75;635;-77
2024/03/17 00:18:18;;;;;;;;;;;20.60;54.70;;;;;;1560079;75;1989;-76
2024/03/17 00:20:20;;;;;;;;;;;20.60;54.70;;;;;;1552309;76;726;-79
2024/03/17 00:22:22;;;;;;;;;;;20.60;54.70;;;;;;1555589;75;1442;-78
2024/03/17 00:24:24;;;;;;;;;;;20.60;54.70;;;;;;1559426;75;1162;-78
2024/03/17 00:26:27;;;;;;;;;;;20.60;54.70;;;;;;1560402;76;715;-80
2024/03/17 00:28:29;;;;;;;;;;;20.50;54.70;;;;;;1554503;75;714;-79
2024/03/17 00:30:31;;;;;;;;;;;20.50;54.70;;;;;;1558745;75;693;-77
2024/03/17 00:32:33;;;;;;;;;;;20.50;54.70;;;;;;1563176;76;721;-77
2024/03/17 00:34:34;;;;;;;;;;;20.60;54.70;;;;;;1552902;75;1132;-82
2024/03/17 00:36:36;;;;;;;;;;;20.50;54.70;;;;;;1553435;75;1932;-77
2024/03/17 00:38:38;;;;;;;;;;;20.50;54.70;;;;;;1555445;76;652;-77
2024/03/17 00:40:45;;;;;;;;;;;20.60;54.70;;;;;;1556794;75;734;-78
2024/03/17 00:42:48;;;;;;;;;;;20.50;54.80;;;;;;1550176;75;1232;-79
2024/03/17 00:44:47;;;;;;;;;;;20.50;54.70;;;;;;1557741;75;1097;-80
2024/03/17 00:46:49;;;;;;;;;;;20.50;54.70;;;;;;1561706;75;746;-77
2024/03/17 00:48:51;;;;;;;;;;;20.60;54.80;;;;;;1556524;75;725;-79
2024/03/17 00:50:59;;;;;;;;;;;20.60;54.80;;;;;;1554929;75;1313;-77
2024/03/17 00:53:03;;;;;;;;;;;20.60;54.80;;;;;;1558392;75;1154;-77
2024/03/17 00:55:04;;;;;;;;;;;20.50;54.80;;;;;;1564633;76;697;-75
2024/03/17 00:57:06;;;;;;;;;;;20.50;54.80;;;;;;1559731;76;1942;-78
2024/03/17 00:59:08;;;;;;;;;;;20.50;54.80;;;;;;1555697;75;720;-82
2024/03/17 01:01:10;;;;;;;;;;;20.60;54.80;;;;;;1558180;75;1011;-78
2024/03/17 01:03:12;;;;;;;;;;;20.60;54.90;;;;;;1549612;76;1193;-77
2024/03/17 01:05:14;;;;;;;;;;;20.60;54.80;;;;;;1556557;75;1595;-76
2024/03/17 01:07:16;;;;;;;;;;;20.50;54.80;;;;;;1550982;75;739;-77
2024/03/17 01:09:18;;;;;;;;;;;20.60;54.90;;;;;;1554349;75;674;-77
2024/03/17 01:11:20;;;;;;;;;;;20.60;54.90;;;;;;1566286;75;742;-77
2024/03/17 01:13:22;;;;;;;;;;;20.60;54.90;;;;;;1557413;75;1125;-77
2024/03/17 01:15:24;;;;;;;;;;;20.50;54.90;;;;;;1560231;75;599;-78
2024/03/17 01:17:26;;;;;;;;;;;20.50;54.90;;;;;;1558048;75;1936;-81
2024/03/17 01:19:27;;;;;;;;;;;20.60;54.90;;;;;;1561519;75;1517;-77
2024/03/17 01:21:29;;;;;;;;;;;20.60;54.90;;;;;;1555479;75;727;-78
2024/03/17 01:23:31;;;;;;;;;;;20.50;54.90;;;;;;1555334;76;1179;-79
2024/03/17 01:25:36;;;;;;;;;;;20.50;54.90;;;;;;1554736;76;701;-75
2024/03/17 01:27:37;;;;;;;;;;;20.50;54.90;;;;;;1560064;75;1798;-77
2024/03/17 01:29:39;;;;;;;;;;;20.60;54.90;;;;;;1557076;75;665;-76
2024/03/17 01:31:41;;;;;;;;;;;20.50;54.90;;;;;;1556114;75;658;-76
2024/03/17 01:33:43;;;;;;;;;;;20.60;54.90;;;;;;1560840;75;1572;-83
2024/03/17 01:35:45;;;;;;;;;;;20.50;54.90;;;;;;1560433;75;594;-78
2024/03/17 01:37:47;;;;;;;;;;;20.50;55.00;;;;;;1563513;75;1943;-78
2024/03/17 01:39:49;;;;;;;;;;;20.60;54.90;;;;;;1558198;75;704;-81
2024/03/17 01:41:52;;;;;;;;;;;20.60;54.90;;;;;;1557025;75;701;-79
2024/03/17 01:43:54;;;;;;;;;;;20.60;54.90;;;;;;1560756;75;1125;-78
2024/03/17 01:45:56;;;;;;;;;;;20.50;54.90;;;;;;1557493;76;699;-77
2024/03/17 01:47:58;;;;;;;;;;;20.60;54.90;;;;;;1560734;75;1428;-79
2024/03/17 01:50:00;;;;;;;;;;;20.60;54.90;;;;;;1558269;76;769;-76
2024/03/17 01:52:03;;;;;;;;;;;20.60;54.90;;;;;;1563308;75;699;-78
2024/03/17 01:54:05;;;;;;;;;;;20.50;54.90;;;;;;1558046;75;1154;-77
2024/03/17 01:56:08;;;;;;;;;;;20.60;54.90;;;;;;1558692;75;736;-77
2024/03/17 01:58:14;;;;;;;;;;;20.50;54.90;;;;;;1558638;75;1907;-77
2024/03/17 02:00:14;;;;;;;;;;;20.50;54.90;;;;;;1550807;75;1472;-78
2024/03/17 02:02:15;;;;;;;;;;;20.50;54.90;;;;;;1553423;75;1010;-77
2024/03/17 02:04:17;;;;;;;;;;;20.50;54.90;;;;;;1551268;75;1223;-77
2024/03/17 02:06:19;;;;;;;;;;;20.50;54.90;;;;;;1548880;75;762;-79
2024/03/17 02:08:22;;;;;;;;;;;20.50;54.90;;;;;;1552581;75;773;-78
2024/03/17 02:10:25;;;;;;;;;;;20.50;55.00;;;;;;1552412;75;715;-77
2024/03/17 02:12:27;;;;;;;;;;;20.50;55.00;;;;;;1555447;75;623;-76
2024/03/17 02:14:29;;;;;;;;;;;20.60;54.90;;;;;;1545195;75;1512;-76
2024/03/17 02:16:30;;;;;;;;;;;20.50;55.00;;;;;;1546360;76;715;-76
2024/03/17 02:18:32;;;;;;;;;;;20.60;55.00;;;;;;1554730;75;1927;-79
2024/03/17 02:22:54;;;;;;;;;;;20.60;54.90;;;;;;1552048;75;1196;-81
2024/03/17 02:24:56;;;;;;;;;;;20.60;55.00;;;;;;1551914;75;753;-80
2024/03/17 02:26:58;;;;;;;;;;;20.60;55.00;;;;;;1552638;75;714;-78
2024/03/17 02:29:00;;;;;;;;;;;20.50;54.90;;;;;;1549307;76;1441;-80
2024/03/17 02:31:02;;;;;;;;;;;20.50;55.00;;;;;;1550794;76;767;-77
2024/03/17 02:33:04;;;;;;;;;;;20.50;54.90;;;;;;1547817;75;1178;-78
2024/03/17 02:35:06;;;;;;;;;;;20.60;54.90;;;;;;1554047;75;721;-77
2024/03/17 02:37:08;;;;;;;;;;;20.50;54.90;;;;;;1548933;75;791;-78
2024/03/17 02:41:30;;;;;;;;;;;20.60;54.90;;;;;;1556396;75;601;-81
2024/03/17 02:43:32;;;;;;;;;;;20.50;54.90;;;;;;1547180;75;1471;-79
2024/03/17 02:45:34;;;;;;;;;;;20.60;54.90;;;;;;1547699;76;644;-80
2024/03/17 02:47:36;;;;;;;;;;;20.50;54.90;;;;;;1552735;75;731;-80
2024/03/17 02:49:39;;;;;;;;;;;20.60;54.90;;;;;;1553705;75;604;-77
2024/03/17 02:51:41;;;;;;;;;;;20.60;54.80;;;;;;1552698;75;845;-74
2024/03/17 02:53:44;;;;;;;;;;;20.50;54.90;;;;;;1550792;75;1142;-79
2024/03/17 02:55:46;;;;;;;;;;;20.50;55.00;;;;;;1553950;75;746;-76
2024/03/17 02:57:48;;;;;;;;;;;20.50;55.00;;;;;;1547242;75;1930;-75
2024/03/17 02:59:50;;;;;;;;;;;20.60;55.10;;;;;;1552800;76;732;-77
2024/03/17 03:01:52;;;;;;;;;;;20.50;55.10;;;;;;1553625;75;1028;-77
2024/03/17 03:03:54;;;;;;;;;;;20.50;55.10;;;;;;1558599;75;1241;-76
2024/03/17 03:06:03;;;;;;;;;;;20.50;55.20;;;;;;1563347;75;746;-75
2024/03/17 03:08:00;;;;;;;;;;;20.50;55.20;;;;;;1554722;75;1678;-76
2024/03/17 03:10:02;;;;;;;;;;;20.50;55.20;;;;;;1560359;75;725;-76
2024/03/17 03:12:04;;;;;;;;;;;20.50;55.20;;;;;;1553441;76;1341;-76
2024/03/17 03:14:05;;;;;;;;;;;20.50;55.20;;;;;;1552173;76;1133;-77
2024/03/17 03:16:08;;;;;;;;;;;20.50;55.30;;;;;;1567722;75;741;-76
2024/03/17 03:18:09;;;;;;;;;;;20.50;55.30;;;;;;1557697;75;1952;-74
2024/03/17 03:20:12;;;;;;;;;;;20.50;55.30;;;;;;1564020;76;591;-77
2024/03/17 03:22:13;;;;;;;;;;;20.50;55.30;;;;;;1560556;75;821;-73
2024/03/17 03:24:15;;;;;;;;;;;20.50;55.30;;;;;;1557302;75;1118;-74
2024/03/17 03:26:17;;;;;;;;;;;20.50;55.30;;;;;;1556365;75;1494;-75
2024/03/17 03:28:19;;;;;;;;;;;20.50;55.20;;;;;;1557234;75;652;-74
2024/03/17 03:30:21;;;;;;;;;;;20.50;55.20;;;;;;1555004;75;679;-74
2024/03/17 03:32:23;;;;;;;;;;;20.50;55.30;;;;;;1555679;75;728;-79
2024/03/17 03:34:25;;;;;;;;;;;20.50;55.20;;;;;;1557569;75;1224;-74
2024/03/17 03:36:27;;;;;;;;;;;20.50;55.20;;;;;;1557698;75;681;-77
2024/03/17 03:38:29;;;;;;;;;;;20.50;55.20;;;;;;1558877;75;1948;-72
2024/03/17 03:40:32;;;;;;;;;;;20.60;55.20;;;;;;1559016;75;1501;-73
2024/03/17 03:42:34;;;;;;;;;;;20.50;55.20;;;;;;1562373;75;722;-75
2024/03/17 03:44:36;;;;;;;;;;;20.60;55.20;;;;;;1551959;75;1130;-75
2024/03/17 03:46:38;;;;;;;;;;;20.50;55.20;;;;;;1565226;75;737;-73
2024/03/17 03:48:40;;;;;;;;;;;20.50;55.10;;;;;;1558524;75;671;-74
2024/03/17 03:50:42;;;;;;;;;;;20.70;55.30;;;;;;1557738;75;705;-74
2024/03/17 03:52:45;;;;;;;;;;;20.50;55.10;;;;;;1558307;75;1490;-76
2024/03/17 03:54:47;;;;;;;;;;;20.60;55.20;;;;;;1558623;75;1063;-78
2024/03/17 03:56:49;;;;;;;;;;;20.50;55.10;;;;;;1560756;76;713;-78
2024/03/17 03:58:51;;;;;;;;;;;20.50;55.20;;;;;;1560014;75;1947;-73
2024/03/17 04:00:52;;;;;;;;;;;20.50;55.10;;;;;;1559597;75;708;-73
2024/03/17 04:02:57;;;;;;;;;;;20.60;55.10;;;;;;1555748;75;987;-72
2024/03/17 04:04:59;;;;;;;;;;;20.60;55.20;;;;;;1556628;75;746;-76
2024/03/17 04:07:01;;;;;;;;;;;20.50;55.10;;;;;;1554787;76;1551;-75
2024/03/17 04:09:05;;;;;;;;;;;20.50;55.20;;;;;;1545819;75;841;-74
2024/03/17 04:11:07;;;;;;;;;;;20.50;55.20;;;;;;1552519;76;1714;-71
2024/03/17 04:13:09;;;;;;;;;;;20.60;55.20;;;;;;1549487;75;1142;-73
2024/03/17 04:15:11;;;;;;;;;;;20.60;55.20;;;;;;1550037;75;687;-72
2024/03/17 04:17:13;;;;;;;;;;;20.50;55.20;;;;;;1552726;75;728;-72
2024/03/17 04:19:16;;;;;;;;;;;20.50;55.20;;;;;;1551165;75;1936;-72
2024/03/17 04:21:18;;;;;;;;;;;20.50;55.20;;;;;;1553321;75;1372;-71
2024/03/17 04:23:21;;;;;;;;;;;20.50;55.20;;;;;;1550011;75;1126;-71
2024/03/17 04:25:23;;;;;;;;;;;20.50;55.20;;;;;;1548730;75;739;-74
2024/03/17 04:27:25;;;;;;;;;;;20.50;55.20;;;;;;1548098;75;727;-73
2024/03/17 04:29:27;;;;;;;;;;;20.50;55.20;;;;;;1553879;75;710;-72
2024/03/17 04:31:28;;;;;;;;;;;20.50;55.20;;;;;;1548578;75;707;-74
2024/03/17 04:33:31;;;;;;;;;;;20.50;55.20;;;;;;1553216;76;1189;-73
2024/03/17 04:35:36;;;;;;;;;;;20.50;55.30;;;;;;1556288;75;1364;-71
2024/03/17 04:37:39;;;;;;;;;;;20.50;55.30;;;;;;1547688;76;720;-72
2024/03/17 04:39:46;;;;;;;;;;;20.50;55.30;;;;;;1552015;76;1911;-78
2024/03/17 04:41:45;;;;;;;;;;;20.50;55.40;;;;;;1515799;77;1257;-73
2024/03/17 04:43:47;;;;;;;;;;;20.60;55.50;;;;;;1523852;77;1152;-71
2024/03/17 04:45:49;;;;;;;;;;;20.50;55.50;;;;;;1519377;76;692;-70
2024/03/17 04:47:51;;;;;;;;;;;20.60;55.50;;;;;;1489987;78;647;-72
2024/03/17 04:49:53;;;;;;;;;;;20.50;55.50;;;;;;1507642;78;1524;-71
2024/03/17 04:51:55;;;;;;;;;;;20.60;55.50;;;;;;1526242;77;755;-72
2024/03/17 04:53:56;;;;;;;;;;;20.50;55.60;;;;;;1524045;77;1132;-71
2024/03/17 04:55:59;;;;;;;;;;;20.60;55.60;;;;;;1524697;77;697;-70
2024/03/17 04:58:01;;;;;;;;;;;20.50;55.60;;;;;;1525295;77;1939;-73
2024/03/17 05:00:08;;;;;;;;;;;20.50;55.60;;;;;;1525084;77;724;-74
2024/03/17 05:02:07;;;;;;;;;;;20.50;55.60;;;;;;1499058;77;1620;-72
2024/03/17 05:04:09;;;;;;;;;;;20.50;55.60;;;;;;1503915;77;1591;-72
2024/03/17 05:06:11;;;;;;;;;;;20.60;55.60;;;;;;1497237;77;710;-71
2024/03/17 05:08:13;;;;;;;;;;;20.50;55.50;;;;;;1499323;77;745;-71
2024/03/17 05:10:15;;;;;;;;;;;20.50;55.60;;;;;;1499331;77;795;-72
2024/03/17 05:12:17;;;;;;;;;;;20.50;55.60;;;;;;1500571;77;622;-72
2024/03/17 05:14:23;;;;;;;;;;;20.50;55.60;;;;;;1498781;77;1163;-71
2024/03/17 05:16:23;;;;;;;;;;;20.50;55.60;;;;;;1500426;77;1774;-72
2024/03/17 05:18:25;;;;;;;;;;;20.50;55.60;;;;;;1492960;77;1921;-72
2024/03/17 05:20:27;;;;;;;;;;;20.50;55.60;;;;;;1498263;77;635;-74
2024/03/17 05:22:29;;;;;;;;;;;20.60;55.60;;;;;;1502350;77;725;-75
2024/03/17 05:24:31;;;;;;;;;;;20.50;55.60;;;;;;1499719;77;1133;-76
2024/03/17 05:26:33;;;;;;;;;;;20.50;55.60;;;;;;1502105;77;735;-75
2024/03/17 05:28:35;;;;;;;;;;;20.50;55.70;;;;;;1500335;77;756;-73
2024/03/17 05:30:37;;;;;;;;;;;20.50;55.70;;;;;;1500840;77;707;-74
2024/03/17 05:32:39;;;;;;;;;;;20.50;55.70;;;;;;1496492;77;1416;-75
2024/03/17 05:34:41;;;;;;;;;;;20.50;55.70;;;;;;1491637;77;1165;-75
2024/03/17 05:36:43;;;;;;;;;;;20.50;55.70;;;;;;1498786;77;897;-73
2024/03/17 05:38:45;;;;;;;;;;;20.50;55.80;;;;;;1494579;77;1935;-73
2024/03/17 05:40:57;;;;;;;;;;;20.40;55.70;;;;;;1500401;77;742;-78
2024/03/17 05:43:00;;;;;;;;;;;20.50;55.80;;;;;;1505028;77;1113;-76
2024/03/17 05:45:02;;;;;;;;;;;20.50;55.80;;;;;;1493411;77;721;-80
2024/03/17 05:47:04;;;;;;;;;;;20.50;55.80;;;;;;1508762;77;1530;-76
2024/03/17 05:49:06;;;;;;;;;;;20.50;56.00;;;;;;1507631;77;818;-73
2024/03/17 05:51:09;;;;;;;;;;;20.60;56.00;;;;;;1506966;77;792;-71
2024/03/17 05:53:10;;;;;;;;;;;20.50;55.90;;;;;;1508648;77;1080;-72
2024/03/17 05:55:12;;;;;;;;;;;20.50;56.00;;;;;;1499270;77;779;-77
2024/03/17 05:57:16;;;;;;;;;;;20.50;56.00;;;;;;1508461;77;730;-80
2024/03/17 05:59:19;;;;;;;;;;;20.60;56.00;;;;;;1496753;77;1915;-80
2024/03/17 06:01:22;;;;;;;;;;;20.50;56.00;;;;;;1499202;77;750;-79
2024/03/17 06:03:24;;;;;;;;;;;20.50;56.00;;;;;;1500285;77;1148;-80
2024/03/17 06:05:26;;;;;;;;;;;20.50;56.00;;;;;;1504625;77;729;-82
2024/03/17 06:07:28;;;;;;;;;;;20.50;55.90;;;;;;1500822;77;727;-79
2024/03/17 06:09:30;;;;;;;;;;;20.60;55.90;;;;;;1506742;77;676;-79
2024/03/17 06:11:34;;;;;;;;;;;20.60;55.90;;;;;;1496423;77;773;-79
2024/03/17 06:13:36;;;;;;;;;;;20.50;55.80;;;;;;1505172;77;1589;-81
2024/03/17 06:15:38;;;;;;;;;;;20.60;56.00;;;;;;1497506;77;783;-78
2024/03/17 06:17:40;;;;;;;;;;;20.60;55.90;;;;;;1501853;77;601;-79
2024/03/17 06:19:43;;;;;;;;;;;20.60;55.70;;;;;;1493167;77;1935;-76
2024/03/17 06:21:45;;;;;;;;;;;20.60;55.70;;;;;;1499783;77;800;-77
2024/03/17 06:23:46;;;;;;;;;;;20.50;55.70;;;;;;1499864;77;1136;-78
2024/03/17 06:25:48;;;;;;;;;;;20.50;55.70;;;;;;1500102;77;892;-78
2024/03/17 06:27:51;;;;;;;;;;;20.50;55.70;;;;;;1499851;77;1512;-79
2024/03/17 06:29:53;;;;;;;;;;;20.50;55.60;;;;;;1496540;77;786;-76
2024/03/17 06:31:55;;;;;;;;;;;20.50;55.60;;;;;;1496515;77;677;-74
2024/03/17 06:33:58;;;;;;;;;;;20.60;55.50;;;;;;1500946;77;1128;-77
2024/03/17 06:36:07;;;;;;;;;;;20.60;55.50;;;;;;1503808;77;737;-77
2024/03/17 06:38:09;;;;;;;;;;;20.60;55.50;;;;;;1499792;77;1204;-78
2024/03/17 06:40:15;;;;;;;;;;;20.60;55.50;;;;;;1502577;77;1909;-77
2024/03/17 06:42:16;;;;;;;;;;;20.50;55.50;;;;;;1502004;77;1666;-81
2024/03/17 06:44:18;;;;;;;;;;;20.60;55.50;;;;;;1492523;77;1137;-76
2024/03/17 06:46:20;;;;;;;;;;;20.60;55.40;;;;;;1501147;77;742;-76
2024/03/17 06:48:23;;;;;;;;;;;20.50;55.40;;;;;;1511757;77;746;-76
2024/03/17 06:50:25;;;;;;;;;;;20.50;55.50;;;;;;1500686;77;810;-76
2024/03/17 06:52:26;;;;;;;;;;;20.50;55.50;;;;;;1504278;77;762;-76
2024/03/17 06:54:28;;;;;;;;;;;20.50;55.50;;;;;;1496173;77;1145;-75
2024/03/17 06:56:32;;;;;;;;;;;20.50;55.50;;;;;;1500382;77;1560;-77
2024/03/17 06:58:34;;;;;;;;;;;20.60;55.50;;;;;;1491319;77;1442;-80
2024/03/17 07:00:36;;;;;;;;;;;20.60;55.50;;;;;;1491444;77;1941;-73
2024/03/17 07:02:37;;;;;;;;;;;20.50;55.60;;;;;;1501173;77;747;-75
2024/03/17 07:04:39;;;;;;;;;;;20.60;55.60;;;;;;1498593;77;1147;-75
2024/03/17 07:06:41;;;;;;;;;;;20.60;55.70;;;;;;1492825;78;587;-73
2024/03/17 07:08:43;;;;;;;;;;;20.50;55.80;;;;;;1489668;78;694;-75
2024/03/17 07:10:47;;;;;;;;;;;20.50;55.80;;;;;;1492909;77;1556;-73
2024/03/17 07:12:48;;;;;;;;;;;20.60;55.80;;;;;;1496973;78;1894;-74
2024/03/17 07:14:51;;;;;;;;;;;20.50;55.90;;;;;;1487798;78;1140;-75
2024/03/17 07:16:54;;;;;;;;;;;20.60;55.90;;;;;;1496464;77;711;-77
2024/03/17 07:19:00;;;;;;;;;;;20.60;55.90;;;;;;1485592;78;1937;-74
2024/03/17 07:21:00;;;;;;;;;;;20.60;55.90;;;;;;1490392;78;1368;-76
2024/03/17 07:23:01;;;;;;;;;;;20.50;55.90;;;;;;1487512;78;1145;-75
2024/03/17 07:25:04;;;;;;;;;;;20.50;55.90;;;;;;1491591;78;1280;-75
2024/03/17 07:27:08;;;;;;;;;;;20.60;55.90;;;;;;1497331;78;692;-74
2024/03/17 07:29:09;;;;;;;;;;;20.50;55.90;;;;;;1495378;78;1544;-78
2024/03/17 07:31:11;;;;;;;;;;;20.60;55.90;;;;;;1490838;78;754;-75
2024/03/17 07:33:13;;;;;;;;;;;20.50;55.90;;;;;;1490263;78;1176;-76
2024/03/17 07:35:15;;;;;;;;;;;20.60;55.90;;;;;;1495482;78;694;-73
2024/03/17 07:37:17;;;;;;;;;;;20.60;56.00;;;;;;1491570;78;754;-74
2024/03/17 07:39:19;;;;;;;;;;;20.50;56.00;;;;;;1494604;78;1954;-77
2024/03/17 07:41:21;;;;;;;;;;;20.60;56.00;;;;;;1481639;78;729;-77
2024/03/17 07:43:23;;;;;;;;;;;20.60;56.00;;;;;;1492413;78;1196;-73
2024/03/17 07:45:25;;;;;;;;;;;20.60;56.00;;;;;;1490530;78;777;-75
2024/03/17 07:47:28;;;;;;;;;;;20.60;55.90;;;;;;1498088;78;749;-75
2024/03/17 07:49:31;;;;;;;;;;;20.50;55.80;;;;;;1501717;78;1775;-76
2024/03/17 07:51:34;;;;;;;;;;;20.50;55.70;;;;;;1487053;78;759;-79
2024/03/17 07:53:36;;;;;;;;;;;20.50;55.70;;;;;;1486906;78;1584;-76
2024/03/17 07:55:38;;;;;;;;;;;20.60;55.10;;;;;;1501030;77;730;-75
2024/03/17 07:57:40;;;;;;;;;;;20.50;54.30;;;;;;1498970;78;751;-78
2024/03/17 07:59:42;;;;;;;;;;;20.60;54.60;;;;;;1493110;78;1925;-75
2024/03/17 08:01:45;;;;;;;;;;;20.60;54.40;;;;;;1503118;78;627;-77
2024/03/17 08:03:55;;;;;;;;;;;20.50;54.20;;;;;;1493406;78;1153;-76
2024/03/17 08:05:51;;;;;;;;;;;20.60;53.50;;;;;;1490354;77;1085;-78
2024/03/17 08:07:53;;;;;;;;;;;20.50;53.30;;;;;;1507829;77;1531;-76
2024/03/17 08:09:55;;;;;;;;;;;20.60;52.80;;;;;;1513373;77;753;-75
2024/03/17 08:11:57;;;;;;;;;;;20.50;53.60;;;;;;1555198;75;750;-76
2024/03/17 08:14:01;;;;;;;;;;;20.40;53.70;;;;;;1558732;75;1189;-76
2024/03/17 08:16:05;;;;;;;;;;;20.50;54.00;;;;;;1569040;75;2081;-73
2024/03/17 08:18:08;;;;;;;;;;;20.50;54.10;;;;;;1565141;75;660;-73
2024/03/17 08:20:10;;;;;;;;;;;20.50;54.20;;;;;;1557438;75;1914;-77
2024/03/17 08:22:11;;;;;;;;;;;20.50;54.20;;;;;;1557963;75;694;-73
2024/03/17 08:24:13;;;;;;;;;;;20.60;54.30;;;;;;1556345;75;1253;-72
2024/03/17 08:26:15;;;;;;;;;;;20.50;54.40;;;;;;1558626;75;738;-76
2024/03/17 08:28:17;;;;;;;;;;;20.60;54.40;;;;;;1565417;75;698;-75
2024/03/17 08:30:19;;;;;;;;;;;20.60;54.40;;;;;;1555620;75;737;-76
2024/03/17 08:32:21;;;;;;;;;;;20.60;54.40;;;;;;1561379;76;628;-76
2024/03/17 08:34:23;;;;;;;;;;;20.60;54.40;;;;;;1555870;76;1608;-76
2024/03/17 08:36:25;;;;;;;;;;;20.60;54.40;;;;;;1560663;76;726;-81
2024/03/17 08:38:28;;;;;;;;;;;20.50;54.40;;;;;;1560479;76;721;-76
2024/03/17 08:40:30;;;;;;;;;;;20.60;54.40;;;;;;1555003;76;1946;-73
2024/03/17 08:42:32;;;;;;;;;;;20.60;54.50;;;;;;1557288;76;773;-75
2024/03/17 08:44:33;;;;;;;;;;;20.70;54.60;;;;;;1563364;76;1149;-75
2024/03/17 08:46:35;;;;;;;;;;;20.60;54.50;;;;;;1563333;76;799;-74
2024/03/17 08:48:38;;;;;;;;;;;20.70;54.60;;;;;;1557635;76;1485;-74
2024/03/17 08:50:40;;;;;;;;;;;20.70;54.60;;;;;;1565089;75;763;-77
2024/03/17 08:52:42;;;;;;;;;;;20.70;54.60;;;;;;1550215;75;733;-75
2024/03/17 08:54:45;;;;;;;;;;;20.60;54.40;;;;;;1561824;75;1125;-74
2024/03/17 08:56:48;;;;;;;;;;;20.80;54.60;;;;;;1556285;75;1631;-72
2024/03/17 08:58:50;;;;;;;;;;;20.70;54.20;;;;;;1562988;75;591;-73
2024/03/17 09:00:52;;;;;;;;;;;20.70;53.80;;;;;;1551330;75;1915;-73
2024/03/17 09:02:54;;;;;;;;;;;20.60;53.90;;;;;;1558762;75;1572;-77
2024/03/17 09:04:56;;;;;;;;;;;20.70;54.10;;;;;;1562732;76;1151;-73
2024/03/17 09:07:00;;;;;;;;;;;20.70;54.20;;;;;;1546110;75;1057;-74
2024/03/17 09:09:02;;;;;;;;;;;20.70;54.20;;;;;;1544713;76;1108;-74
2024/03/17 09:11:06;;;;;;;;;;;20.70;54.20;;;;;;1550347;76;701;-74
2024/03/17 09:13:09;;;;;;;;;;;20.70;54.20;;;;;;1548372;76;1138;-74
2024/03/17 09:15:11;;;;;;;;;;;20.70;54.20;;;;;;1543161;76;730;-77
2024/03/17 09:17:13;;;;;;;;;;;20.70;54.30;;;;;;1543328;76;1547;-75
2024/03/17 09:19:15;;;;;;;;;;;20.70;54.30;;;;;;1547099;76;735;-76
2024/03/17 09:21:17;;;;;;;;;;;20.70;54.30;;;;;;1544517;76;1936;-74
2024/03/17 09:23:21;;;;;;;;;;;20.70;54.20;;;;;;1541970;76;1121;-75
2024/03/17 09:25:23;;;;;;;;;;;20.70;54.20;;;;;;1543679;76;1168;-74
2024/03/17 09:27:25;;;;;;;;;;;20.70;54.30;;;;;;1544815;76;711;-75
2024/03/17 09:29:27;;;;;;;;;;;20.80;54.20;;;;;;1545488;76;700;-73
2024/03/17 09:31:30;;;;;;;;;;;20.80;54.20;;;;;;1544041;75;1536;-74
2024/03/17 09:33:32;;;;;;;;;;;20.80;54.20;;;;;;1543151;76;1147;-73
2024/03/17 09:35:34;;;;;;;;;;;20.80;54.20;;;;;;1544478;76;707;-73
2024/03/17 09:37:36;;;;;;;;;;;20.80;54.20;;;;;;1543141;76;773;-73
2024/03/17 09:39:38;;;;;;;;;;;20.80;54.20;;;;;;1541642;76;660;-74
2024/03/17 09:41:40;;;;;;;;;;;20.80;54.20;;;;;;1543491;75;1934;-73
2024/03/17 09:43:42;;;;;;;;;;;20.80;54.20;;;;;;1537736;76;1094;-75
2024/03/17 09:45:43;;;;;;;;;;;20.80;54.20;;;;;;1548497;76;1413;-76
2024/03/17 09:47:45;;;;;;;;;;;20.80;54.10;;;;;;1544072;76;725;-73
2024/03/17 09:49:48;;;;;;;;;;;20.80;54.10;;;;;;1532969;76;717;-75
2024/03/17 09:51:50;;;;;;;;;;;20.80;54.10;;;;;;1541482;76;744;-74
2024/03/17 09:53:52;;;;;;;;;;;20.80;54.10;;;;;;1538063;76;1197;-74
2024/03/17 09:55:55;;;;;;;;;;;20.80;54.10;;;;;;1537852;76;725;-76
2024/03/17 09:57:57;;;;;;;;;;;20.80;54.00;;;;;;1548597;76;1636;-73
2024/03/17 09:59:59;;;;;;;;;;;20.80;54.00;;;;;;1540000;76;1935;-74
2024/03/17 10:02:02;;;;;;;;;;;20.80;54.00;;;;;;1543888;76;754;-74
2024/03/17 10:04:04;;;;;;;;;;;20.80;54.00;;;;;;1546057;76;1156;-71
2024/03/17 10:06:06;;;;;;;;;;;20.80;54.10;;;;;;1539692;76;1159;-72
2024/03/17 10:08:08;;;;;;;;;;;20.80;54.00;;;;;;1537170;76;644;-73
2024/03/17 10:10:13;;;;;;;;;;;20.80;53.90;;;;;;1543602;76;672;-74
2024/03/17 10:12:28;;;;;;;;;;;20.80;53.90;;;;;;1539173;76;725;-74
2024/03/17 10:14:29;;;;;;;;;;;20.80;53.90;;;;;;1544771;76;1747;-73
2024/03/17 10:16:32;;;;;;;;;;;20.80;53.90;;;;;;1545711;76;700;-74
2024/03/17 10:18:34;;;;;;;;;;;20.80;53.90;;;;;;1539119;76;746;-75
2024/03/17 10:20:36;;;;;;;;;;;20.80;53.90;;;;;;1541984;76;1909;-74
2024/03/17 10:22:38;;;;;;;;;;;20.80;53.90;;;;;;1538909;75;666;-74
2024/03/17 10:24:40;;;;;;;;;;;20.80;53.90;;;;;;1544485;76;1110;-74
2024/03/17 10:26:44;;;;;;;;;;;20.80;53.90;;;;;;1538321;76;1549;-75
2024/03/17 10:28:46;;;;;;;;;;;20.80;53.90;;;;;;1544136;76;927;-75
2024/03/17 10:30:58;;;;;;;;;;;20.80;53.90;;;;;;1540708;76;664;-73
2024/03/17 10:33:00;;;;;;;;;;;20.80;53.90;;;;;;1535724;76;1149;-74
2024/03/17 10:35:02;;;;;;;;;;;20.80;53.90;;;;;;1544572;76;718;-76
2024/03/17 10:37:13;;;;;;;;;;;20.80;53.80;;;;;;1543748;76;776;-74
2024/03/17 10:39:32;;;;;;;;;;;20.80;53.80;;;;;;1547709;76;666;-77
2024/03/17 10:41:34;;;;;;;;;;;20.80;53.90;;;;;;1538857;76;1909;-73
2024/03/17 10:43:38;;;;;;;;;;;20.80;53.90;;;;;;1547289;76;1171;-75
2024/03/17 10:45:41;;;;;;;;;;;20.80;53.80;;;;;;1543173;76;777;-74
2024/03/17 10:47:44;;;;;;;;;;;20.80;53.80;;;;;;1512843;76;704;-75
2024/03/17 10:49:46;;;;;;;;;;;20.80;53.80;;;;;;1537337;76;989;-75
2024/03/17 10:51:48;;;;;;;;;;;20.70;53.80;;;;;;1547235;76;706;-73
2024/03/17 10:53:52;;;;;;;;;;;20.80;53.80;;;;;;1547118;76;1179;-73
2024/03/17 10:56:09;;;;;;;;;;;20.80;53.80;;;;;;1541422;76;1696;-74
2024/03/17 10:58:15;;;;;;;;;;;20.80;53.80;;;;;;1539685;76;713;-78
2024/03/17 11:00:17;;;;;;;;;;;20.80;53.80;;;;;;1542129;76;1933;-76
2024/03/17 11:02:26;;;;;;;;;;;20.80;53.80;;;;;;1535876;76;724;-75
2024/03/17 11:04:24;;;;;;;;;;;20.80;53.70;;;;;;1542972;76;1564;-75
2024/03/17 11:06:26;;;;;;;;;;;20.80;53.70;;;;;;1539702;76;1068;-74
2024/03/17 11:08:28;;;;;;;;;;;20.80;53.70;;;;;;1552157;76;606;-76
2024/03/17 11:10:39;;;;;;;;;;;20.80;53.80;;;;;;1553517;76;1592;-75
2024/03/17 11:12:44;;;;;;;;;;;20.80;53.70;;;;;;1552226;76;752;-75
2024/03/17 11:14:46;;;;;;;;;;;20.80;53.70;;;;;;1551058;76;1193;-75
2024/03/17 11:16:48;;;;;;;;;;;20.80;53.70;;;;;;1557047;76;745;-77
2024/03/17 11:18:50;;;;;;;;;;;20.70;53.70;;;;;;1555142;75;729;-76
2024/03/17 11:21:14;;;;;;;;;;;20.70;53.70;;;;;;1554958;76;1941;-74
2024/03/17 11:23:16;;;;;;;;;;;20.80;53.70;;;;;;1542792;75;1554;-76
2024/03/17 11:25:33;;;;;;;;;;;20.80;53.60;;;;;;1552515;76;1116;-74
2024/03/17 11:27:41;;;;;;;;;;;20.80;53.70;;;;;;1538855;76;2078;-76
2024/03/17 11:29:42;;;;;;;;;;;20.80;53.70;;;;;;1550834;76;760;-74
2024/03/17 11:31:46;;;;;;;;;;;20.80;53.60;;;;;;1556613;76;794;-74
2024/03/17 11:33:48;;;;;;;;;;;20.80;53.60;;;;;;1552097;76;1147;-77
2024/03/17 11:35:50;;;;;;;;;;;20.70;53.60;;;;;;1555400;76;647;-73
2024/03/17 11:37:53;;;;;;;;;;;20.70;53.60;;;;;;1553501;76;1656;-73
2024/03/17 11:39:58;;;;;;;;;;;20.80;53.60;;;;;;1552904;76;769;-77
2024/03/17 11:42:03;;;;;;;;;;;20.80;53.60;;;;;;1555674;76;1899;-76
2024/03/17 11:44:29;;;;;;;;;;;20.80;53.60;;;;;;1556219;75;1161;-74
2024/03/17 11:46:31;;;;;;;;;;;20.80;53.60;;;;;;1556764;76;696;-75
2024/03/17 11:48:32;;;;;;;;;;;20.80;53.70;;;;;;1559092;76;738;-76
2024/03/17 11:50:34;;;;;;;;;;;20.80;53.60;;;;;;1547578;76;722;-73
2024/03/17 11:52:37;;;;;;;;;;;20.70;53.60;;;;;;1554482;76;1541;-73
2024/03/17 11:54:40;;;;;;;;;;;20.80;53.60;;;;;;1550432;75;1178;-73
2024/03/17 11:56:42;;;;;;;;;;;20.80;53.60;;;;;;1545596;76;1056;-73
2024/03/17 11:58:44;;;;;;;;;;;20.80;53.60;;;;;;1550644;76;610;-74
2024/03/17 12:00:47;;;;;;;;;;;20.80;53.70;;;;;;1554154;76;1940;-75
2024/03/17 12:02:49;;;;;;;;;;;20.70;53.60;;;;;;1550393;75;1475;-73
2024/03/17 12:04:51;;;;;;;;;;;20.70;53.70;;;;;;1554378;76;1102;-73
2024/03/17 12:06:54;;;;;;;;;;;20.80;53.60;;;;;;1555478;76;1696;-73
2024/03/17 12:08:58;;;;;;;;;;;20.80;53.60;;;;;;1547771;76;522;-78
2024/03/17 12:11:01;;;;;;;;;;;20.80;53.60;;;;;;1547743;76;954;-74
2024/03/17 12:13:03;;;;;;;;;;;20.80;53.60;;;;;;1544282;76;1227;-73
2024/03/17 12:15:07;;;;;;;;;;;20.70;53.60;;;;;;1547346;76;593;-74